Aérodrome :
LOGIN :

S'inscrire | Disclaimer

   EN    FR    IT 

 










Légende :    VFR   VFR Marginal   IFR   IFR Intensif   IFR Très Intensif
Visi : 
Plafond : 
>= 8 km
>= 3000ft
5 à 8 km
1000 à 3000 ft
1500m à 5 km
500 à 1000 ft
800 à 1500m
200 à 500 ft
< 800m
< 200 ft
Symboles :   Orages  Brouillard  Fortes neiges  Fortes précipitations  Vent > 20 kt
SIGMETs :   Divers  Orages  Givrage  Turbulence  Onde Orograph.  Cendres Volcan.







- Altitude de l'aérodrome : 412 ft
- Code IATA : ORE
- Voir les cartes d'approche


LFOJ - Orleans

DERNIER METAR :
  • 200030Z AUTO 23005KT 9999 SCT025 SCT046 OVC054 17/14 Q1012

METARs EXPIRÉS :
  • 200000Z AUTO 22006KT 9999 SCT031 BKN037 BKN045 17/14 Q1012
  • 192330Z AUTO 22007KT 9999 FEW031 BKN038 BKN048 18/15 Q1012
  • 192300Z AUTO 21004KT 9999 FEW030 OVC058 18/15 Q1012 TEMPO 2500 -TSRA BKN035CB
  • 192230Z AUTO 21004KT 9999 FEW038 BKN045 OVC058 18/15 Q1012 TEMPO 2500 -TSRA BKN035CB
  • 192200Z AUTO 21003KT 9999 BKN037 BKN046 OVC058 18/16 Q1012 TEMPO 2500 -TSRA BKN035CB

TAF TAF LFOJ
Valide du 19 à 21h jusqu'au 20 à 21h UTC


192000Z 1921/2021 28005KT 9999 BKN045
TEMPO 1921/2009 3000 SHRA BKN040TCU
PROB40
TEMPO 1921/2001 2500 -TSRA BKN035CB
Pas de NOTAMs connus pour ce terrain.



MET'MAP, la Météo Aéronautique d'un coup d'oeil ! - Copyright ORBIFLY Décembre 2007 - Disclaimer

ORBIFLY MET'MAP TEAM :

Programmation & Développement : Alexandra Zaïnal
Conception & Développement : Baudouin d'Aumeries
Co-Programmation & Développement : Marc-Olivier Méhu
Soutien technique & logistique : Manuel Goepfert

Contact : metmap@orbifly.com




SOURCES & CREDITS :

   NOAA